createdAt,value
2018-07-28T00:00:38.264Z,49.33
2018-07-28T00:01:38.262Z,49.73
2018-07-28T00:02:38.282Z,49.53
2018-07-28T00:03:38.232Z,49.73
2018-07-28T00:04:38.227Z,49.93
2018-07-28T00:05:38.213Z,49.63
2018-07-28T00:06:38.196Z,49.83
2018-07-28T00:07:38.193Z,49.63
2018-07-28T00:08:38.218Z,49.63
2018-07-28T00:09:38.167Z,50.82
2018-07-28T00:10:38.154Z,49.51
2018-07-28T00:11:38.149Z,50.90
2018-07-28T00:12:38.142Z,49.33
2018-07-28T00:13:38.173Z,49.61
2018-07-28T00:14:38.136Z,49.13
2018-07-28T00:15:38.101Z,49.61
2018-07-28T00:16:38.093Z,49.80
2018-07-28T00:17:38.080Z,49.51
2018-07-28T00:18:38.068Z,49.33
2018-07-28T00:19:38.067Z,49.11
2018-07-28T00:20:38.050Z,49.11
2018-07-28T00:21:38.057Z,49.21
2018-07-28T00:22:38.031Z,50.01
2018-07-28T00:23:38.013Z,49.31
2018-07-28T00:24:38.007Z,49.11
2018-07-28T00:25:37.996Z,49.71
2018-07-28T00:26:37.988Z,48.81
2018-07-28T00:27:37.970Z,49.51
2018-07-28T00:28:37.962Z,49.41
2018-07-28T00:29:37.970Z,49.51
2018-07-28T00:30:37.942Z,49.43
2018-07-28T00:31:37.937Z,49.61
2018-07-28T00:32:37.925Z,49.41
2018-07-28T00:33:37.910Z,49.61
2018-07-28T00:34:37.931Z,49.73
2018-07-28T00:35:37.885Z,49.11
2018-07-28T00:36:37.875Z,48.81
2018-07-28T00:37:37.864Z,49.21
2018-07-28T00:38:37.851Z,48.11
2018-07-28T00:39:37.890Z,48.99
2018-07-28T00:40:37.840Z,48.61
2018-07-28T00:41:37.821Z,48.22
2018-07-28T00:42:37.827Z,48.22
2018-07-28T00:43:37.805Z,48.69
2018-07-28T00:44:37.793Z,47.89
2018-07-28T00:45:37.781Z,48.49
2018-07-28T00:46:37.777Z,48.79
2018-07-28T00:47:37.754Z,47.70
2018-07-28T00:48:37.747Z,48.10
2018-07-28T00:49:37.774Z,47.70
2018-07-28T00:50:37.729Z,47.80
2018-07-28T00:51:37.731Z,48.79
2018-07-28T00:52:37.705Z,47.70
2018-07-28T00:53:37.695Z,48.59
2018-07-28T00:54:37.686Z,48.79
2018-07-28T00:55:37.671Z,49.68
2018-07-28T00:56:37.666Z,48.10
2018-07-28T00:57:37.653Z,48.91
2018-07-28T00:58:37.665Z,49.01
2018-07-28T00:59:37.626Z,48.91
2018-07-28T01:00:37.620Z,49.11
2018-07-28T01:01:37.621Z,48.81
2018-07-28T01:02:37.593Z,49.49
2018-07-28T01:03:37.602Z,49.11
2018-07-28T01:04:37.587Z,49.21
2018-07-28T01:05:37.588Z,49.11
2018-07-28T01:06:37.574Z,49.01
2018-07-28T01:07:37.544Z,49.61
2018-07-28T01:08:37.531Z,49.61
2018-07-28T01:09:37.521Z,49.41
2018-07-28T01:10:37.536Z,49.80
2018-07-28T01:11:37.504Z,49.61
2018-07-28T01:12:37.498Z,49.91
2018-07-28T01:13:37.484Z,49.91
2018-07-28T01:14:37.464Z,49.83
2018-07-28T01:15:37.480Z,49.93
2018-07-28T01:16:37.468Z,49.23
2018-07-28T01:17:37.449Z,49.93
2018-07-28T01:18:37.431Z,49.53
2018-07-28T01:19:37.412Z,49.73
2018-07-28T01:20:37.416Z,49.91
2018-07-28T01:21:37.397Z,49.71
2018-07-28T01:22:37.378Z,49.61
2018-07-28T01:23:37.375Z,49.71
2018-07-28T01:24:37.361Z,49.41
2018-07-28T01:25:37.359Z,49.11
2018-07-28T01:26:37.368Z,49.71
2018-07-28T01:27:37.325Z,49.61
2018-07-28T01:28:37.320Z,49.51
2018-07-28T01:29:37.307Z,49.51
2018-07-28T01:30:37.299Z,49.61
2018-07-28T01:31:37.305Z,49.91
2018-07-28T01:32:37.273Z,49.51
2018-07-28T01:33:37.262Z,50.01
2018-07-28T01:34:37.251Z,49.31
2018-07-28T01:35:37.263Z,49.51
2018-07-28T01:36:37.234Z,49.63
2018-07-28T01:37:37.229Z,49.51
2018-07-28T01:38:37.213Z,49.91
2018-07-28T01:39:37.196Z,49.21
2018-07-28T01:40:37.187Z,49.91
2018-07-28T01:41:37.205Z,49.61
2018-07-28T01:42:37.163Z,49.71
2018-07-28T01:43:37.164Z,49.11
2018-07-28T01:44:37.148Z,49.61
2018-07-28T01:45:37.134Z,49.21
2018-07-28T01:46:37.124Z,49.80
2018-07-28T01:47:37.146Z,49.19
2018-07-28T01:48:37.102Z,48.91
2018-07-28T01:49:37.122Z,49.80
2018-07-28T01:50:37.102Z,49.51
2018-07-28T01:51:37.073Z,49.80
2018-07-28T01:52:37.088Z,49.38
2018-07-28T01:53:37.057Z,49.51
2018-07-28T01:54:37.037Z,49.71
2018-07-28T01:55:37.027Z,49.21
2018-07-28T01:56:37.020Z,49.58
2018-07-28T01:57:37.011Z,49.41
2018-07-28T01:58:36.998Z,49.51
2018-07-28T01:59:37.019Z,49.71
2018-07-28T02:00:36.974Z,49.80
2018-07-28T02:01:36.989Z,49.71
2018-07-28T02:02:36.961Z,49.80
2018-07-28T02:03:36.941Z,49.91
2018-07-28T02:04:36.928Z,49.31
2018-07-28T02:05:36.923Z,49.93
2018-07-28T02:06:36.909Z,50.10
2018-07-28T02:07:36.914Z,50.13
2018-07-28T02:08:36.892Z,49.73
2018-07-28T02:09:36.883Z,50.73
2018-07-28T02:10:36.895Z,50.52
2018-07-28T02:11:36.855Z,50.23
2018-07-28T02:12:36.843Z,50.03
2018-07-28T02:13:36.833Z,50.33
2018-07-28T02:14:36.834Z,50.13
2018-07-28T02:15:36.822Z,50.23
2018-07-28T02:16:36.809Z,50.33
2018-07-28T02:17:36.789Z,50.63
2018-07-28T02:18:36.781Z,50.82
2018-07-28T02:19:36.772Z,50.63
2018-07-28T02:20:36.763Z,50.73
2018-07-28T02:21:36.755Z,51.12
2018-07-28T02:22:36.741Z,50.45
2018-07-28T02:23:36.729Z,50.43
2018-07-28T02:24:36.718Z,50.93
2018-07-28T02:25:36.704Z,50.85
2018-07-28T02:26:36.722Z,50.95
2018-07-28T02:27:36.686Z,50.93
2018-07-28T02:28:36.689Z,50.65
2018-07-28T02:29:36.667Z,51.03
2018-07-28T02:30:36.654Z,51.42
2018-07-28T02:31:36.645Z,50.93
2018-07-28T02:32:36.636Z,51.45
2018-07-28T02:33:36.628Z,50.95
2018-07-28T02:34:36.637Z,51.25
2018-07-28T02:35:36.614Z,51.25
2018-07-28T02:36:36.621Z,51.15
2018-07-28T02:37:36.588Z,51.45
2018-07-28T02:38:36.567Z,51.45
2018-07-28T02:39:36.558Z,51.15
2018-07-28T02:40:36.549Z,51.65
2018-07-28T02:41:36.539Z,51.54
2018-07-28T02:42:36.533Z,50.95
2018-07-28T02:43:36.513Z,51.05
2018-07-28T02:44:36.503Z,51.75
2018-07-28T02:45:36.489Z,51.25
2018-07-28T02:46:36.484Z,51.15
2018-07-28T02:47:36.501Z,51.65
2018-07-28T02:48:36.463Z,51.15
2018-07-28T02:49:36.444Z,51.45
2018-07-28T02:50:36.441Z,51.45
2018-07-28T02:51:36.428Z,51.35
2018-07-28T02:52:36.419Z,50.95
2018-07-28T02:53:36.412Z,51.32
2018-07-28T02:54:36.396Z,51.15
2018-07-28T02:55:36.389Z,51.25
2018-07-28T02:56:36.387Z,51.25
2018-07-28T02:57:36.371Z,51.42
2018-07-28T02:58:36.357Z,51.22
2018-07-28T02:59:36.346Z,50.93
2018-07-28T03:00:36.335Z,50.93
2018-07-28T03:01:36.325Z,50.75
2018-07-28T03:02:36.310Z,50.65
2018-07-28T03:03:36.303Z,50.33
2018-07-28T03:04:36.310Z,50.65
2018-07-28T03:05:36.280Z,50.85
2018-07-28T03:06:36.279Z,50.82
2018-07-28T03:07:36.254Z,50.63
2018-07-28T03:08:36.251Z,50.63
2018-07-28T03:09:36.230Z,50.65
2018-07-28T03:10:36.232Z,50.43
2018-07-28T03:11:36.218Z,51.25
2018-07-28T03:12:36.228Z,51.22
2018-07-28T03:13:36.222Z,51.35
2018-07-28T03:14:36.181Z,51.15
2018-07-28T03:15:36.172Z,51.05
2018-07-28T03:16:36.155Z,50.95
2018-07-28T03:17:36.143Z,51.65
2018-07-28T03:18:36.135Z,51.07
2018-07-28T03:19:36.136Z,51.35
2018-07-28T03:20:36.129Z,51.15
2018-07-28T03:21:36.100Z,51.25
2018-07-28T03:22:36.092Z,51.77
2018-07-28T03:23:36.092Z,52.37
2018-07-28T03:24:36.076Z,53.76
2018-07-28T03:25:36.089Z,53.19
2018-07-28T03:26:36.055Z,53.78
2018-07-28T03:27:36.040Z,55.21
2018-07-28T03:28:36.025Z,54.21
2018-07-28T03:29:36.046Z,55.13
2018-07-28T03:30:36.005Z,54.74
2018-07-28T03:31:36.000Z,56.66
2018-07-28T03:32:35.989Z,57.65
2018-07-28T03:33:35.980Z,58.58
2018-07-28T03:34:35.971Z,59.11
2018-07-28T03:35:35.958Z,59.21
2018-07-28T03:36:35.938Z,59.74
2018-07-28T03:37:35.934Z,59.14
2018-07-28T03:38:35.921Z,58.64
2018-07-28T03:39:35.924Z,58.56
2018-07-28T03:40:35.910Z,59.77
2018-07-28T03:41:35.885Z,58.17
2018-07-28T03:42:35.877Z,58.86
2018-07-28T03:43:35.867Z,57.84
2018-07-28T03:44:35.872Z,57.54
2018-07-28T03:45:35.887Z,58.14
2018-07-28T03:46:35.844Z,58.44
2018-07-28T03:47:35.822Z,57.74
2018-07-28T03:48:35.818Z,57.54
2018-07-28T03:49:35.801Z,57.21
2018-07-28T03:50:35.791Z,56.71
2018-07-28T03:51:35.785Z,55.41
2018-07-28T03:52:35.775Z,55.69
2018-07-28T03:53:35.758Z,55.79
2018-07-28T03:54:35.748Z,56.66
2018-07-28T03:55:35.739Z,57.48
2018-07-28T03:56:35.740Z,56.29
2018-07-28T03:57:35.722Z,56.68
2018-07-28T03:58:35.709Z,57.09
2018-07-28T03:59:35.708Z,55.66
2018-07-28T04:00:35.681Z,55.86
2018-07-28T04:01:35.672Z,55.24
2018-07-28T04:02:35.661Z,54.64
2018-07-28T04:03:35.695Z,54.64
2018-07-28T04:04:35.646Z,55.54
2018-07-28T04:05:35.636Z,53.69
2018-07-28T04:06:35.626Z,53.29
2018-07-28T04:07:35.623Z,51.97
2018-07-28T04:08:35.594Z,50.82
2018-07-28T04:09:35.590Z,53.02
2018-07-28T04:10:35.584Z,52.04
2018-07-28T04:11:35.608Z,51.65
2018-07-28T04:12:35.552Z,52.34
2018-07-28T04:13:35.552Z,51.75
2018-07-28T04:14:35.558Z,51.75
2018-07-28T04:15:35.541Z,53.04
2018-07-28T04:16:35.523Z,52.07
2018-07-28T04:17:35.512Z,52.04
2018-07-28T04:18:35.512Z,52.04
2018-07-28T04:19:35.476Z,52.54
2018-07-28T04:20:35.467Z,52.04
2018-07-28T04:21:35.461Z,52.54
2018-07-28T04:22:35.472Z,52.34
2018-07-28T04:23:35.440Z,52.04
2018-07-28T04:24:35.432Z,52.17
2018-07-28T04:25:35.414Z,53.36
2018-07-28T04:26:35.413Z,52.76
2018-07-28T04:27:35.396Z,53.06
2018-07-28T04:28:35.444Z,52.97
2018-07-28T04:29:35.471Z,53.56
2018-07-28T04:30:35.365Z,53.76
2018-07-28T04:31:35.347Z,53.46
2018-07-28T04:32:35.347Z,55.48
2018-07-28T04:33:35.329Z,55.08
2018-07-28T04:34:35.324Z,55.08
2018-07-28T04:35:35.310Z,54.71
2018-07-28T04:36:35.304Z,54.31
2018-07-28T04:37:35.296Z,54.98
2018-07-28T04:38:35.288Z,54.71
2018-07-28T04:39:35.260Z,55.38
2018-07-28T04:40:35.265Z,55.11
2018-07-28T04:41:35.253Z,55.21
2018-07-28T04:42:35.235Z,55.61
2018-07-28T04:43:35.246Z,55.31
2018-07-28T04:44:35.209Z,55.71
2018-07-28T04:45:35.199Z,56.83
2018-07-28T04:46:35.188Z,57.73
2018-07-28T04:47:35.181Z,57.15
2018-07-28T04:48:35.200Z,57.15
2018-07-28T04:49:35.158Z,58.85
2018-07-28T04:50:35.154Z,58.75
2018-07-28T04:51:35.146Z,59.88
2018-07-28T04:52:35.122Z,58.58
2018-07-28T04:53:35.112Z,58.58
2018-07-28T04:54:35.101Z,59.68
2018-07-28T04:55:35.124Z,60.31
2018-07-28T04:56:35.082Z,59.11
2018-07-28T04:57:35.075Z,59.41
2018-07-28T04:58:35.062Z,59.70
2018-07-28T04:59:35.056Z,59.70
2018-07-28T05:00:35.042Z,59.51
2018-07-28T05:01:35.029Z,59.18
2018-07-28T05:02:35.036Z,60.50
2018-07-28T05:03:35.029Z,61.00
2018-07-28T05:04:35.020Z,61.00
2018-07-28T05:05:34.991Z,59.81
2018-07-28T05:06:34.970Z,61.30
2018-07-28T05:07:35.158Z,60.80
2018-07-28T05:08:34.957Z,60.91
2018-07-28T05:09:34.967Z,60.91
2018-07-28T05:10:34.940Z,61.41
2018-07-28T05:11:34.916Z,61.51
2018-07-28T05:12:34.908Z,62.40
2018-07-28T05:13:34.900Z,61.21
2018-07-28T05:14:34.896Z,60.93
2018-07-28T05:15:34.879Z,60.91
2018-07-28T05:16:34.867Z,61.00
2018-07-28T05:17:34.854Z,60.78
2018-07-28T05:18:34.857Z,61.27
2018-07-28T05:19:34.870Z,60.97
2018-07-28T05:20:34.828Z,62.07
2018-07-28T05:21:34.815Z,62.10
2018-07-28T05:22:34.805Z,60.61
2018-07-28T05:23:34.815Z,60.68
2018-07-28T05:24:34.781Z,60.97
2018-07-28T05:25:34.770Z,60.58
2018-07-28T05:26:34.765Z,61.27
2018-07-28T05:27:34.751Z,61.18
2018-07-28T05:28:34.755Z,60.55
2018-07-28T05:29:34.786Z,61.77
2018-07-28T05:30:34.730Z,59.65
2018-07-28T05:31:34.709Z,62.94
2018-07-28T05:32:34.695Z,60.68
2018-07-28T05:33:34.696Z,64.04
2018-07-28T05:34:34.676Z,64.97
2018-07-28T05:35:34.695Z,65.17
2018-07-28T05:36:34.650Z,63.67
2018-07-28T05:37:34.649Z,61.60
2018-07-28T05:38:34.633Z,62.90
2018-07-28T05:39:34.623Z,62.40
2018-07-28T05:40:34.656Z,65.00
2018-07-28T05:41:34.605Z,64.80
2018-07-28T05:42:34.624Z,63.87
2018-07-28T05:43:34.572Z,64.60
2018-07-28T05:44:34.563Z,61.21
2018-07-28T05:45:34.562Z,62.81
2018-07-28T05:46:34.582Z,61.47
2018-07-28T05:47:34.533Z,61.87
2018-07-28T05:48:34.538Z,61.44
2018-07-28T05:49:34.512Z,62.74
2018-07-28T05:50:34.504Z,61.35
2018-07-28T05:51:34.523Z,61.05
2018-07-28T05:52:34.529Z,62.15
2018-07-28T05:53:34.472Z,61.52
2018-07-28T05:54:34.468Z,61.32
2018-07-28T05:55:34.444Z,60.72
2018-07-28T05:56:34.442Z,60.12
2018-07-28T05:57:34.446Z,61.11
2018-07-28T05:58:34.410Z,63.38
2018-07-28T05:59:34.407Z,61.41
2018-07-28T06:00:34.400Z,66.20
2018-07-28T06:01:34.381Z,62.31
2018-07-28T06:02:34.541Z,62.71
2018-07-28T06:03:34.367Z,66.50
2018-07-28T06:04:34.359Z,65.11
2018-07-28T06:05:34.341Z,60.12
2018-07-28T06:06:34.332Z,64.31
2018-07-28T06:07:34.314Z,64.21
2018-07-28T06:08:34.311Z,62.61
2018-07-28T06:09:34.295Z,62.18
2018-07-28T06:10:34.281Z,59.96
2018-07-28T06:11:34.292Z,60.06
2018-07-28T06:12:34.265Z,59.64
2018-07-28T06:13:34.262Z,58.61
2018-07-28T06:14:34.260Z,57.52
2018-07-28T06:15:34.236Z,56.40
2018-07-28T06:16:34.220Z,55.38
2018-07-28T06:17:34.211Z,55.65
2018-07-28T06:18:34.206Z,54.63
2018-07-28T06:19:34.194Z,55.22
2018-07-28T06:20:34.179Z,55.00
2018-07-28T06:21:34.169Z,57.75
2018-07-28T06:22:34.154Z,55.17
2018-07-28T06:23:34.177Z,53.85
2018-07-28T06:24:34.152Z,54.75
2018-07-28T06:25:34.126Z,53.96
2018-07-28T06:26:34.118Z,54.05
2018-07-28T06:27:34.105Z,53.33
2018-07-28T06:28:34.092Z,53.73
2018-07-28T06:29:34.086Z,54.22
2018-07-28T06:30:34.085Z,53.23
2018-07-28T06:31:34.114Z,55.02
2018-07-28T06:32:34.054Z,55.54
2018-07-28T06:33:34.132Z,53.96
2018-07-28T06:34:34.046Z,53.56
2018-07-28T06:35:34.139Z,55.34
2018-07-28T06:36:34.102Z,53.06
2018-07-28T06:37:34.071Z,54.57
2018-07-28T06:38:34.023Z,54.38
2018-07-28T06:39:34.090Z,54.90
2018-07-28T06:40:34.038Z,59.27
2018-07-28T06:41:33.978Z,55.47
2018-07-28T06:42:33.979Z,55.40
2018-07-28T06:43:33.988Z,60.16
2018-07-28T06:44:34.064Z,57.18
2018-07-28T06:45:34.823Z,57.78
2018-07-28T06:46:34.228Z,55.29
2018-07-28T06:47:33.993Z,56.88
2018-07-28T06:48:33.916Z,55.59
2018-07-28T06:49:33.887Z,56.78
2018-07-28T06:50:33.908Z,55.29
2018-07-28T06:51:33.893Z,55.29
2018-07-28T06:52:33.919Z,55.40
2018-07-28T06:53:33.921Z,55.07
2018-07-28T06:54:33.927Z,55.29
2018-07-28T06:55:33.835Z,54.77
2018-07-28T06:56:33.808Z,56.98
2018-07-28T06:57:33.790Z,55.49
2018-07-28T06:58:33.806Z,56.12
2018-07-28T06:59:33.757Z,56.12
2018-07-28T07:00:33.757Z,55.52
2018-07-28T07:01:33.753Z,55.94
2018-07-28T07:02:33.730Z,56.94
2018-07-28T07:03:33.782Z,57.96
2018-07-28T07:04:33.707Z,57.26
2018-07-28T07:05:33.694Z,57.06
2018-07-28T07:06:33.684Z,57.26
2018-07-28T07:07:33.677Z,57.26
2018-07-28T07:08:33.667Z,57.96
2018-07-28T07:09:33.656Z,57.56
2018-07-28T07:10:33.653Z,58.16
2018-07-28T07:11:33.709Z,58.06
2018-07-28T07:12:33.626Z,58.88
2018-07-28T07:13:33.607Z,58.78
2018-07-28T07:14:33.599Z,59.18
2018-07-28T07:15:33.594Z,58.78
2018-07-28T07:16:33.583Z,58.88
2018-07-28T07:17:34.516Z,58.51
2018-07-28T07:18:33.560Z,58.91
2018-07-28T07:19:33.543Z,59.81
2018-07-28T07:20:33.547Z,60.11
2018-07-28T07:21:33.559Z,60.73
2018-07-28T07:22:33.517Z,61.23
2018-07-28T07:23:33.498Z,61.36
2018-07-28T07:24:33.501Z,61.46
2018-07-28T07:25:33.498Z,61.85
2018-07-28T07:26:33.502Z,62.35
2018-07-28T07:27:33.512Z,61.96
2018-07-28T07:28:33.452Z,61.96
2018-07-28T07:29:33.449Z,61.96
2018-07-28T07:30:33.455Z,61.85
2018-07-28T07:31:33.430Z,61.72
2018-07-28T07:32:33.490Z,61.93
2018-07-28T07:33:33.397Z,61.00
2018-07-28T07:34:33.386Z,61.50
2018-07-28T07:35:33.387Z,61.63
2018-07-28T07:36:33.372Z,61.80
2018-07-28T07:37:33.376Z,61.20
2018-07-28T07:38:33.385Z,61.80
2018-07-28T07:39:33.349Z,61.43
2018-07-28T07:40:33.364Z,62.49
2018-07-28T07:41:33.400Z,62.52
2018-07-28T07:42:33.346Z,61.72
2018-07-28T07:43:33.334Z,61.72
2018-07-28T07:44:33.306Z,62.65
2018-07-28T07:45:33.274Z,63.82
2018-07-28T07:46:33.295Z,62.55
2018-07-28T07:47:33.393Z,62.85
2018-07-28T07:48:33.270Z,63.45
2018-07-28T07:49:33.232Z,62.55
2018-07-28T07:50:33.227Z,62.88
2018-07-28T07:51:33.209Z,62.98
2018-07-28T07:52:33.201Z,64.67
2018-07-28T07:53:33.215Z,64.78
2018-07-28T07:54:33.183Z,63.78
2018-07-28T07:55:33.164Z,65.08
2018-07-28T07:56:33.156Z,66.47
2018-07-28T07:57:33.145Z,66.07
2018-07-28T07:58:33.133Z,69.79
2018-07-28T07:59:33.173Z,67.83
2018-07-28T08:00:33.118Z,69.13
2018-07-28T08:01:33.197Z,73.11
2018-07-28T08:02:33.131Z,71.75
2018-07-28T08:03:33.123Z,72.39
2018-07-28T08:04:33.086Z,72.92
2018-07-28T08:05:33.068Z,76.92
2018-07-28T08:06:33.097Z,82.41
2018-07-28T08:07:33.106Z,78.49
2018-07-28T08:08:33.054Z,80.59
2018-07-28T08:09:33.097Z,81.47
2018-07-28T08:10:33.052Z,83.67
2018-07-28T08:11:33.051Z,84.51
2018-07-28T08:12:33.093Z,84.21
2018-07-28T08:13:33.025Z,86.32
2018-07-28T08:14:32.982Z,88.26
2018-07-28T08:15:32.996Z,90.06
2018-07-28T08:16:32.981Z,90.20
2018-07-28T08:17:32.972Z,89.90
2018-07-28T08:18:32.968Z,90.15
2018-07-28T08:19:32.949Z,90.05
2018-07-28T08:20:33.073Z,88.75
2018-07-28T08:21:33.248Z,88.14
2018-07-28T08:22:33.105Z,89.65
2018-07-28T08:23:32.926Z,91.05
2018-07-28T08:24:32.951Z,90.70
2018-07-28T08:25:32.863Z,89.90
2018-07-28T08:26:32.845Z,89.11
2018-07-28T08:27:32.833Z,89.06
2018-07-28T08:28:32.819Z,89.46
2018-07-28T08:29:32.915Z,88.62
2018-07-28T08:30:32.884Z,88.92
2018-07-28T08:31:32.785Z,87.48
2018-07-28T08:32:32.779Z,86.18
2018-07-28T08:33:32.761Z,87.27
2018-07-28T08:34:32.753Z,87.53
2018-07-28T08:35:32.735Z,85.73
2018-07-28T08:36:32.733Z,86.93
2018-07-28T08:37:32.722Z,85.79
2018-07-28T08:38:32.705Z,87.89
2018-07-28T08:39:32.699Z,87.55
2018-07-28T08:40:32.687Z,86.35
2018-07-28T08:41:32.689Z,86.31
2018-07-28T08:42:32.663Z,85.41
2018-07-28T08:43:32.664Z,82.71
2018-07-28T08:44:32.643Z,82.91
2018-07-28T08:45:32.633Z,82.31
2018-07-28T08:46:32.625Z,82.28
2018-07-28T08:47:32.617Z,83.87
2018-07-28T08:48:32.598Z,82.57
2018-07-28T08:49:32.631Z,82.57
2018-07-28T08:50:32.578Z,81.84
2018-07-28T08:51:32.597Z,79.48
2018-07-28T08:52:32.583Z,79.48
2018-07-28T08:53:32.557Z,81.87
2018-07-28T08:54:32.572Z,81.81
2018-07-28T08:55:32.564Z,80.11
2018-07-28T08:56:32.543Z,81.41
2018-07-28T08:57:32.504Z,81.51
2018-07-28T08:58:32.499Z,84.41
2018-07-28T08:59:32.492Z,82.11
2018-07-28T09:00:32.486Z,82.81
2018-07-28T09:01:32.466Z,81.71
2018-07-28T09:02:32.464Z,83.51
2018-07-28T09:03:32.442Z,81.45
2018-07-28T09:04:32.435Z,81.21
2018-07-28T09:05:32.418Z,82.61
2018-07-28T09:06:32.433Z,82.55
2018-07-28T09:07:32.412Z,81.56
2018-07-28T09:08:32.392Z,81.25
2018-07-28T09:09:32.391Z,82.35
2018-07-28T09:10:32.407Z,82.09
2018-07-28T09:11:32.364Z,82.39
2018-07-28T09:12:32.485Z,81.19
2018-07-28T09:13:32.329Z,84.29
2018-07-28T09:14:32.317Z,83.63
2018-07-28T09:15:32.312Z,83.93
2018-07-28T09:16:32.341Z,85.53
2018-07-28T09:17:32.307Z,85.59
2018-07-28T09:18:32.281Z,85.43
2018-07-28T09:19:32.266Z,84.29
2018-07-28T09:20:32.258Z,84.39
2018-07-28T09:21:32.243Z,84.53
2018-07-28T09:22:32.289Z,84.79
2018-07-28T09:23:32.276Z,84.65
2018-07-28T09:24:32.215Z,85.85
2018-07-28T09:25:32.206Z,85.25
2018-07-28T09:26:32.201Z,84.05
2018-07-28T09:27:32.180Z,82.81
2018-07-28T09:28:32.170Z,82.01
2018-07-28T09:29:32.170Z,84.51
2018-07-28T09:30:32.153Z,82.21
2018-07-28T09:31:32.138Z,80.91
2018-07-28T09:32:32.139Z,81.31
2018-07-28T09:33:32.146Z,81.21
2018-07-28T09:34:32.101Z,80.91
2018-07-28T09:35:32.098Z,82.61
2018-07-28T09:36:32.085Z,82.31
2018-07-28T09:37:32.105Z,82.47
2018-07-28T09:38:32.067Z,81.18
2018-07-28T09:39:32.049Z,82.47
2018-07-28T09:40:32.039Z,82.67
2018-07-28T09:41:32.028Z,81.18
2018-07-28T09:42:32.016Z,83.57
2018-07-28T09:43:32.049Z,81.73
2018-07-28T09:44:32.013Z,80.83
2018-07-28T09:45:32.027Z,80.64
2018-07-28T09:46:31.981Z,80.50
2018-07-28T09:47:31.985Z,80.30
2018-07-28T09:48:31.988Z,80.66
2018-07-28T09:49:31.948Z,81.52
2018-07-28T09:50:31.938Z,82.62
2018-07-28T09:51:31.925Z,78.33
2018-07-28T09:52:31.916Z,77.93
2018-07-28T09:53:31.902Z,78.83
2018-07-28T09:54:31.891Z,78.29
2018-07-28T09:55:31.885Z,76.00
2018-07-28T09:56:31.910Z,75.90
2018-07-28T09:57:31.861Z,77.56
2018-07-28T09:58:31.866Z,74.37
2018-07-28T09:59:31.897Z,76.26
2018-07-28T10:00:31.826Z,72.48
2018-07-28T10:01:31.824Z,76.13
2018-07-28T10:02:31.809Z,74.99
2018-07-28T10:03:31.793Z,75.79
2018-07-28T10:04:31.783Z,71.38
2018-07-28T10:05:31.797Z,68.93
2018-07-28T10:06:31.760Z,70.52
2018-07-28T10:07:31.764Z,69.29
2018-07-28T10:08:31.744Z,70.29
2018-07-28T10:09:31.739Z,70.39
2018-07-28T10:10:31.727Z,70.25
2018-07-28T10:11:31.713Z,66.48
2018-07-28T10:12:31.703Z,69.06
2018-07-28T10:13:31.690Z,68.27
2018-07-28T10:14:31.676Z,70.36
2018-07-28T10:15:31.676Z,67.77
2018-07-28T10:16:31.660Z,68.57
2018-07-28T10:17:31.649Z,66.21
2018-07-28T10:18:31.635Z,68.10
2018-07-28T10:19:31.634Z,69.92
2018-07-28T10:20:31.649Z,67.90
2018-07-28T10:21:31.609Z,68.53
2018-07-28T10:22:31.603Z,66.35
2018-07-28T10:23:31.584Z,67.74
2018-07-28T10:24:31.594Z,67.74
2018-07-28T10:25:31.567Z,68.63
2018-07-28T10:26:31.559Z,68.73
2018-07-28T10:27:31.550Z,67.14
2018-07-28T10:28:31.600Z,67.33
2018-07-28T10:29:31.526Z,65.75
2018-07-28T10:30:31.553Z,67.11
2018-07-28T10:31:31.500Z,67.00
2018-07-28T10:32:31.502Z,69.99
2018-07-28T10:33:31.501Z,67.70
2018-07-28T10:34:31.533Z,66.31
2018-07-28T10:35:31.486Z,65.91
2018-07-28T10:36:31.497Z,67.30
2018-07-28T10:37:31.451Z,67.47
2018-07-28T10:38:31.444Z,69.06
2018-07-28T10:39:31.431Z,64.89
2018-07-28T10:40:31.416Z,65.98
2018-07-28T10:41:31.408Z,67.18
2018-07-28T10:42:31.393Z,69.46
2018-07-28T10:43:31.382Z,69.96
2018-07-28T10:44:31.368Z,67.57
2018-07-28T10:45:31.407Z,68.10
2018-07-28T10:46:31.375Z,67.33
2018-07-28T10:47:31.340Z,68.93
2018-07-28T10:48:31.332Z,66.64
2018-07-28T10:49:31.335Z,66.17
2018-07-28T10:50:31.301Z,70.45
2018-07-28T10:51:31.301Z,74.37
2018-07-28T10:52:31.298Z,68.99
2018-07-28T10:53:31.275Z,72.52
2018-07-28T10:54:31.301Z,76.00
2018-07-28T10:55:31.294Z,70.92
2018-07-28T10:56:31.247Z,71.51
2018-07-28T10:57:31.230Z,70.75
2018-07-28T10:58:31.216Z,73.21
2018-07-28T10:59:31.222Z,72.88
2018-07-28T11:00:31.237Z,72.85
2018-07-28T11:01:31.187Z,70.15
2018-07-28T11:02:31.224Z,71.78
2018-07-28T11:03:31.166Z,71.64
2018-07-28T11:04:31.156Z,70.42
2018-07-28T11:05:31.145Z,67.60
2018-07-28T11:06:31.138Z,66.22
2018-07-28T11:07:31.122Z,66.48
2018-07-28T11:08:31.117Z,64.47
2018-07-28T11:09:31.115Z,65.89
2018-07-28T11:10:31.090Z,63.08
2018-07-28T11:11:31.098Z,64.07
2018-07-28T11:12:31.073Z,65.13
2018-07-28T11:13:31.091Z,63.02
2018-07-28T11:14:31.054Z,62.49
2018-07-28T11:15:31.040Z,61.43
2018-07-28T11:16:31.058Z,65.46
2018-07-28T11:17:31.725Z,63.58
2018-07-28T11:18:31.077Z,62.56
2018-07-28T11:19:31.006Z,61.64
2018-07-28T11:20:30.990Z,63.39
2018-07-28T11:21:30.976Z,64.54
2018-07-28T11:22:30.982Z,57.53
2018-07-28T11:23:30.978Z,57.50
2018-07-28T11:24:30.987Z,58.00
2018-07-28T11:25:30.937Z,57.01
2018-07-28T11:26:30.931Z,57.67
2018-07-28T11:27:30.915Z,56.65
2018-07-28T11:28:30.911Z,56.58
2018-07-28T11:29:30.897Z,56.09
2018-07-28T11:30:30.882Z,54.80
2018-07-28T11:31:30.935Z,59.05
2018-07-28T11:32:30.908Z,59.94
2018-07-28T11:33:30.861Z,54.31
2018-07-28T11:34:30.887Z,59.64
2018-07-28T11:35:30.833Z,56.31
2018-07-28T11:36:30.829Z,56.12
2018-07-28T11:37:30.848Z,57.50
2018-07-28T11:38:30.825Z,56.04
2018-07-28T11:39:30.801Z,58.91
2018-07-28T11:40:30.785Z,59.63
2018-07-28T11:41:30.772Z,57.18
2018-07-28T11:42:30.759Z,57.39
2018-07-28T11:43:30.793Z,57.65
2018-07-28T11:44:30.816Z,60.79
2018-07-28T11:45:30.732Z,56.51
2018-07-28T11:46:30.731Z,55.02
2018-07-28T11:47:30.709Z,51.40
2018-07-28T11:48:30.700Z,54.22
2018-07-28T11:49:30.699Z,51.50
2018-07-28T11:50:30.679Z,53.81
2018-07-28T11:51:30.679Z,53.54
2018-07-28T11:52:30.681Z,54.33
2018-07-28T11:53:30.659Z,54.74
2018-07-28T11:54:30.658Z,52.18
2018-07-28T11:55:30.678Z,52.23
2018-07-28T11:56:30.622Z,46.51
2018-07-28T11:57:30.614Z,49.14
2018-07-28T11:58:30.716Z,47.20
2018-07-28T11:59:30.609Z,45.37
2018-07-28T12:00:30.610Z,43.66
2018-07-28T12:01:30.579Z,43.68
2018-07-28T12:02:30.569Z,45.05
2018-07-28T12:03:30.560Z,43.93
2018-07-28T12:04:30.550Z,42.79
2018-07-28T12:05:30.620Z,41.80
2018-07-28T12:06:30.550Z,40.80
2018-07-28T12:07:30.517Z,42.22
2018-07-28T12:08:30.521Z,39.61
2018-07-28T12:09:30.505Z,40.29
2018-07-28T12:10:30.509Z,42.63
2018-07-28T12:11:30.486Z,41.61
2018-07-28T12:12:30.557Z,42.79
2018-07-28T12:13:30.507Z,38.69
2018-07-28T12:14:30.452Z,39.67
2018-07-28T12:15:30.485Z,40.01
2018-07-28T12:16:30.472Z,37.26
2018-07-28T12:17:30.469Z,36.87
2018-07-28T12:18:30.480Z,35.49
2018-07-28T12:19:30.416Z,38.21
2018-07-28T12:20:30.422Z,37.70
2018-07-28T12:21:30.404Z,38.11
2018-07-28T12:22:30.402Z,37.62
2018-07-28T12:23:30.395Z,37.89
2018-07-28T12:24:30.376Z,39.53
2018-07-28T12:25:30.362Z,40.25
2018-07-28T12:26:30.409Z,42.29
2018-07-28T12:27:30.383Z,42.64
2018-07-28T12:28:30.369Z,45.13
2018-07-28T12:29:30.333Z,41.94
2018-07-28T12:30:30.323Z,40.74
2018-07-28T12:31:30.307Z,46.08
2018-07-28T12:32:30.308Z,43.92
2018-07-28T12:33:30.297Z,47.22
2018-07-28T12:34:30.319Z,44.59
2018-07-28T12:35:30.316Z,45.77
2018-07-28T12:36:30.272Z,45.67
2018-07-28T12:37:30.254Z,49.92
2018-07-28T12:38:30.290Z,48.37
2018-07-28T12:39:30.235Z,47.24
2018-07-28T12:40:30.220Z,47.85
2018-07-28T12:41:30.247Z,53.00
2018-07-28T12:42:30.225Z,51.03
2018-07-28T12:43:30.194Z,53.59
2018-07-28T12:44:30.182Z,50.56
2018-07-28T12:45:30.185Z,52.06
2018-07-28T12:46:30.159Z,51.00
2018-07-28T12:47:30.171Z,53.15
2018-07-28T12:48:30.172Z,54.74
2018-07-28T12:49:30.211Z,49.18
2018-07-28T12:50:30.137Z,49.65
2018-07-28T12:51:30.113Z,47.19
2018-07-28T12:52:30.108Z,47.56